Time;durP1;ratioP1;P1;durP2;ratioP2;P2;SDS_P1;SDS_P2;PMS_P1;PMS_P2;Temp;Humidity;BMP_temperature;BMP_pressure;BME280_temperature;BME280_humidity;BME280_pressure;Samples;Min_cycle;Max_cycle;Signal;HPM_P1;HPM_P2
2021/06/03 00:00:54;;;;;;;2.67;2.23;;;;;;;17.71;70.48;97460.91;5046529;28;20228;-67
2021/06/03 00:03:21;;;;;;;3.60;2.60;;;;;;;20.04;70.57;97788.16;5045181;28;20300;-67
2021/06/03 00:05:53;;;;;;;4.90;2.50;;;;;;;17.16;70.52;97298.41;5046832;28;20652;-67
2021/06/03 00:08:20;;;;;;;3.27;2.30;;;;;;;20.04;70.77;97795.81;5045339;28;20235;-67
2021/06/03 00:10:50;;;;;;;5.80;2.20;;;;;;;20.05;70.61;97799.25;5079309;22;20259;-67
2021/06/03 00:13:18;;;;;;;3.10;2.37;;;;;;;20.00;70.58;97793.97;5080711;28;20199;-66
2021/06/03 00:15:45;;;;;;;2.57;2.37;;;;;;;19.59;70.79;97722.59;5065920;28;20191;-66
2021/06/03 00:18:11;;;;;;;3.93;2.37;;;;;;;19.90;70.60;97779.13;5035116;28;20622;-67
2021/06/03 00:20:38;;;;;;;4.33;2.30;;;;;;;20.05;70.64;97809.47;5049800;28;20222;-70
2021/06/03 00:23:05;;;;;;;3.93;2.30;;;;;;;19.89;70.86;97780.78;5085394;28;20231;-68
2021/06/03 00:25:32;;;;;;;2.27;2.07;;;;;;;19.90;70.46;97781.69;5051904;28;20310;-66
2021/06/03 00:27:58;;;;;;;2.47;2.27;;;;;;;19.60;70.76;97727.75;5050498;28;20693;-68
2021/06/03 00:30:25;;;;;;;2.73;2.30;;;;;;;19.91;70.94;97786.84;5050150;28;20591;-67
2021/06/03 00:32:52;;;;;;;2.47;2.27;;;;;;;19.88;70.72;97776.50;5051271;28;20681;-66
2021/06/03 00:35:19;;;;;;;3.13;2.30;;;;;;;19.70;70.77;97745.19;5066574;28;20195;-66
2021/06/03 00:37:46;;;;;;;2.87;2.10;;;;;;;20.04;70.65;97805.19;5052023;28;20700;-66
2021/06/03 00:40:13;;;;;;;3.83;2.40;;;;;;;19.47;70.52;97705.16;5068674;28;20381;-66
2021/06/03 00:42:40;;;;;;;2.70;2.20;;;;;;;20.04;70.70;97807.72;5050742;28;20285;-67
2021/06/03 00:45:09;;;;;;;2.37;2.17;;;;;;;20.03;70.70;97806.84;5045317;28;20302;-67
2021/06/03 00:47:35;;;;;;;3.27;2.03;;;;;;;19.88;71.04;97779.06;5067973;28;20651;-67
2021/06/03 00:50:10;;;;;;;2.53;2.30;;;;;;;19.96;70.82;97792.97;5049599;28;20224;-66
2021/06/03 00:52:37;;;;;;;2.17;1.97;;;;;;;19.77;70.91;97771.78;5061954;28;20859;-67
2021/06/03 00:55:04;;;;;;;2.40;2.20;;;;;;;19.88;70.90;97784.16;5068473;28;20223;-66
2021/06/03 00:57:31;;;;;;;3.57;2.20;;;;;;;19.95;70.94;97793.78;5068426;28;20290;-67
2021/06/03 00:59:57;;;;;;;3.03;2.27;;;;;;;19.36;70.72;97700.44;5064734;28;20724;-66
2021/06/03 01:02:24;;;;;;;2.37;2.03;;;;;;;19.94;71.05;97806.50;5061385;28;20690;-67
2021/06/03 01:04:51;;;;;;;2.53;2.27;;;;;;;19.76;70.93;97785.34;5063278;28;20324;-70
2021/06/03 01:07:17;;;;;;;2.50;2.07;;;;;;;19.34;71.31;97710.56;5047628;28;20679;-67
2021/06/03 01:10:01;;;;;;;2.90;2.00;;;;;;;19.82;70.96;97800.91;5051680;28;20300;-66
2021/06/03 01:12:29;;;;;;;2.20;2.00;;;;;;;19.82;71.24;97811.09;5051817;28;20296;-67
2021/06/03 01:14:57;;;;;;;2.10;1.90;;;;;;;19.55;71.17;97766.63;5049608;28;20717;-67
2021/06/03 01:17:24;;;;;;;2.00;1.80;;;;;;;19.86;71.22;97829.13;5051614;28;20647;-67
2021/06/03 01:19:51;;;;;;;2.43;2.10;;;;;;;19.88;71.22;97839.41;5065867;28;20223;-68
2021/06/03 01:22:22;;;;;;;2.37;2.07;;;;;;;19.87;71.45;97833.41;5067348;28;20205;-66
2021/06/03 01:24:54;;;;;;;2.33;2.13;;;;;;;19.72;71.21;97820.03;5085594;28;20220;-66
2021/06/03 01:27:24;;;;;;;2.20;2.00;;;;;;;19.43;70.99;97768.69;5048295;28;20657;-68
2021/06/03 01:30:10;;;;;;;2.23;1.90;;;;;;;19.89;71.18;97843.69;5052187;28;20273;-66
2021/06/03 01:32:41;;;;;;;1.90;1.80;;;;;;;19.89;71.55;97851.34;5066882;28;20290;-68
2021/06/03 01:35:15;;;;;;;3.20;2.27;;;;;;;19.77;71.37;97820.22;5063198;28;20592;-67
2021/06/03 01:37:41;;;;;;;2.57;2.37;;;;;;;19.87;71.43;97832.56;5067769;28;20656;-67
2021/06/03 01:40:08;;;;;;;2.40;2.20;;;;;;;19.39;71.38;97748.97;5060933;28;20311;-67
2021/06/03 01:42:35;;;;;;;2.17;1.97;;;;;;;19.43;71.23;97750.84;5067214;28;20230;-67
2021/06/03 01:45:03;;;;;;;2.30;2.10;;;;;;;20.01;71.38;97845.88;5032538;28;20248;-67
2021/06/03 01:47:29;;;;;;;2.67;2.00;;;;;;;19.42;71.18;97747.41;5062955;28;20204;-67
2021/06/03 01:49:56;;;;;;;2.67;1.97;;;;;;;19.89;71.29;97828.38;5052229;28;20258;-67
2021/06/03 01:52:23;;;;;;;2.37;2.17;;;;;;;19.90;70.96;97822.50;5038034;28;20290;-67
2021/06/03 01:54:49;;;;;;;2.33;1.80;;;;;;;20.06;71.07;97852.91;5068495;28;20255;-66
2021/06/03 01:57:16;;;;;;;2.33;2.07;;;;;;;19.67;71.03;97784.97;5051907;28;20676;-67
2021/06/03 01:59:43;;;;;;;3.00;2.30;;;;;;;20.06;71.02;97850.34;5054542;28;20757;-67
2021/06/03 02:02:09;;;;;;;2.07;1.93;;;;;;;20.10;70.96;97859.00;5070255;28;20242;-67
2021/06/03 02:04:36;;;;;;;1.90;1.80;;;;;;;20.09;71.15;97854.69;5088273;28;20336;-68
2021/06/03 02:07:03;;;;;;;2.50;2.30;;;;;;;19.69;70.66;97788.47;5069198;28;20242;-67
2021/06/03 02:09:29;;;;;;;2.50;2.10;;;;;;;19.99;70.85;97841.56;5053594;28;20274;-66
2021/06/03 02:11:56;;;;;;;2.20;2.00;;;;;;;20.13;70.82;97865.13;5069494;28;20257;-67
2021/06/03 02:14:26;;;;;;;2.17;1.97;;;;;;;20.14;70.79;97863.44;5069397;28;20203;-68
2021/06/03 02:16:59;;;;;;;1.93;1.83;;;;;;;20.15;70.78;97863.50;5069020;28;20227;-67
2021/06/03 02:19:35;;;;;;;2.80;1.93;;;;;;;19.90;70.61;97814.84;5053196;28;20228;-67
2021/06/03 02:22:03;;;;;;;2.50;2.00;;;;;;;19.97;70.78;97829.56;5054010;28;20195;-67
2021/06/03 02:24:29;;;;;;;2.10;1.87;;;;;;;20.04;70.61;97840.91;5071019;28;20262;-66
2021/06/03 02:26:56;;;;;;;2.17;1.80;;;;;;;20.18;70.68;97862.75;5053244;28;20648;-67
2021/06/03 02:29:23;;;;;;;2.20;2.00;;;;;;;20.18;70.58;97870.41;5071010;28;20223;-66
2021/06/03 02:31:49;;;;;;;2.07;1.80;;;;;;;20.18;70.36;97866.19;5064649;28;20721;-66
2021/06/03 02:34:16;;;;;;;2.20;2.00;;;;;;;19.64;70.34;97785.72;5065080;28;20207;-68
2021/06/03 02:36:42;;;;;;;2.17;1.97;;;;;;;19.40;70.31;97732.88;5050203;28;20684;-67
2021/06/03 02:39:09;;;;;;;1.70;1.60;;;;;;;20.04;70.51;97851.09;5053966;28;20288;-67
2021/06/03 02:41:36;;;;;;;2.30;2.10;;;;;;;20.05;70.35;97848.63;5061503;28;20254;-67
2021/06/03 02:44:02;;;;;;;2.00;1.90;;;;;;;20.20;70.27;97881.56;5065732;28;20236;-67
2021/06/03 02:46:29;;;;;;;1.83;1.73;;;;;;;19.97;70.15;97852.53;5068139;28;20258;-68
2021/06/03 02:48:56;;;;;;;1.90;1.70;;;;;;;20.14;70.08;97889.84;5053888;28;20625;-67
2021/06/03 02:51:22;;;;;;;2.10;1.90;;;;;;;20.14;70.22;97886.41;5068789;28;21152;-66
2021/06/03 02:53:51;;;;;;;2.00;1.87;;;;;;;19.88;70.17;97839.41;5084779;28;20286;-67
2021/06/03 02:56:18;;;;;;;2.10;1.90;;;;;;;20.12;70.52;97880.31;5065439;28;20687;-66
2021/06/03 02:58:44;;;;;;;1.93;1.83;;;;;;;20.16;70.20;97884.81;5070185;28;20227;-67
2021/06/03 03:01:11;;;;;;;2.67;1.97;;;;;;;19.98;70.38;97851.72;5087160;28;20771;-67
2021/06/03 03:03:38;;;;;;;2.23;2.07;;;;;;;20.14;70.27;97881.31;5048646;28;20261;-67
2021/06/03 03:06:04;;;;;;;2.27;2.07;;;;;;;19.44;70.41;97778.94;5068175;28;20338;-67
2021/06/03 03:08:31;;;;;;;1.80;1.70;;;;;;;19.60;70.42;97794.03;5052876;28;20298;-67
2021/06/03 03:11:00;;;;;;;2.10;1.90;;;;;;;20.02;70.24;97861.25;5053264;28;20258;-68
2021/06/03 03:13:27;;;;;;;2.07;1.97;;;;;;;20.18;70.26;97895.91;5049671;28;20268;-66
2021/06/03 03:15:53;;;;;;;2.10;2.00;;;;;;;18.68;70.28;97649.13;5087716;28;20234;-66
2021/06/03 03:18:20;;;;;;;2.10;1.90;;;;;;;19.58;70.22;97793.13;5069174;28;20578;-67
2021/06/03 03:20:47;;;;;;;2.37;2.17;;;;;;;20.17;70.23;97895.06;5066125;28;20521;-67
2021/06/03 03:23:14;;;;;;;1.97;1.87;;;;;;;19.70;70.40;97839.53;5068917;28;20710;-67
2021/06/03 03:25:40;;;;;;;2.00;1.80;;;;;;;20.17;70.36;97887.41;5049778;28;20664;-67
2021/06/03 03:28:07;;;;;;;1.77;1.67;;;;;;;20.01;70.10;97868.84;5067902;28;20234;-69
2021/06/03 03:30:40;;;;;;;2.50;2.00;;;;;;;19.64;70.22;97806.13;5052204;28;20251;-67
2021/06/03 03:33:10;;;;;;;2.20;2.00;;;;;;;20.16;70.43;97892.44;5068889;28;20231;-67
2021/06/03 03:35:37;;;;;;;1.90;1.80;;;;;;;20.14;70.43;97892.41;5069414;28;20223;-67
2021/06/03 03:38:04;;;;;;;1.90;1.80;;;;;;;19.97;70.48;97867.84;5069322;28;20292;-68
2021/06/03 03:40:30;;;;;;;2.00;1.77;;;;;;;19.53;70.46;97789.50;5051904;28;20271;-67
2021/06/03 03:42:57;;;;;;;2.20;1.93;;;;;;;20.14;70.45;97892.41;5052746;28;20286;-67
2021/06/03 03:45:24;;;;;;;2.03;1.90;;;;;;;20.14;70.48;97901.72;5068281;28;20227;-67
2021/06/03 03:47:51;;;;;;;2.00;1.80;;;;;;;20.05;70.41;97886.88;5048985;28;20685;-67
2021/06/03 03:50:18;;;;;;;1.83;1.73;;;;;;;19.50;70.40;97786.84;5087481;28;20610;-66
2021/06/03 03:52:45;;;;;;;2.00;1.90;;;;;;;20.11;70.43;97902.44;5065714;28;20259;-66
2021/06/03 03:55:12;;;;;;;2.10;2.00;;;;;;;20.12;70.51;97893.09;5068104;28;20206;-67
2021/06/03 03:57:39;;;;;;;1.80;1.70;;;;;;;19.67;70.67;97835.97;5085740;28;20254;-67
2021/06/03 04:00:08;;;;;;;2.43;2.03;;;;;;;20.09;70.54;97909.16;5052177;28;20250;-68
2021/06/03 04:02:34;;;;;;;1.90;1.80;;;;;;;19.40;70.70;97784.72;5068171;28;20233;-67
2021/06/03 04:05:01;;;;;;;2.40;1.70;;;;;;;20.11;70.68;97911.75;5068827;28;20314;-66
2021/06/03 04:07:27;;;;;;;2.00;1.90;;;;;;;19.93;70.47;97882.13;5068796;28;20643;-66
2021/06/03 04:09:54;;;;;;;1.97;1.87;;;;;;;19.94;70.42;97883.91;5051874;28;20259;-67
2021/06/03 04:12:21;;;;;;;2.10;1.90;;;;;;;19.85;70.76;97886.06;5065345;28;20253;-66
2021/06/03 04:14:48;;;;;;;2.10;1.90;;;;;;;19.74;70.66;97869.44;5052124;28;20200;-67
2021/06/03 04:17:14;;;;;;;2.70;1.80;;;;;;;20.08;70.63;97921.84;5051912;28;20286;-66
2021/06/03 04:19:41;;;;;;;2.57;2.00;;;;;;;20.07;70.78;97927.78;5050879;28;20219;-67
2021/06/03 04:22:07;;;;;;;2.03;1.93;;;;;;;20.07;70.72;97931.16;5080347;28;20291;-66
2021/06/03 04:24:34;;;;;;;1.93;1.83;;;;;;;20.05;70.58;97932.81;5067693;28;20206;-67
2021/06/03 04:27:01;;;;;;;1.73;1.63;;;;;;;19.64;70.84;97869.88;5085761;28;20318;-67
2021/06/03 04:29:27;;;;;;;1.80;1.70;;;;;;;20.08;70.92;97937.16;5067502;28;20347;-68
2021/06/03 04:31:54;;;;;;;2.03;1.83;;;;;;;20.00;70.83;97926.63;5066927;28;20641;-67
2021/06/03 04:34:21;;;;;;;1.90;1.80;;;;;;;20.07;70.70;97938.81;5069279;28;20678;-68
2021/06/03 04:36:47;;;;;;;2.47;2.00;;;;;;;19.92;71.21;97910.13;5068481;28;20196;-67
2021/06/03 04:39:14;;;;;;;1.87;1.77;;;;;;;20.07;70.98;97936.28;5051549;28;20239;-66
2021/06/03 04:41:40;;;;;;;1.70;1.60;;;;;;;20.07;70.83;97945.63;5068115;28;20744;-67
2021/06/03 04:44:07;;;;;;;2.20;2.00;;;;;;;20.04;70.94;97937.84;5085432;28;20620;-67
2021/06/03 04:46:34;;;;;;;1.93;1.80;;;;;;;19.84;70.92;97906.41;5067346;28;20262;-69
2021/06/03 04:49:04;;;;;;;2.27;1.73;;;;;;;20.06;71.02;97949.84;5068453;28;20208;-68
2021/06/03 04:51:30;;;;;;;2.10;1.90;;;;;;;20.05;71.01;97948.13;5086800;28;20551;-68
2021/06/03 04:53:57;;;;;;;2.03;1.87;;;;;;;19.98;70.98;97936.78;5079194;28;20261;-66
2021/06/03 04:56:23;;;;;;;1.83;1.73;;;;;;;20.05;71.09;97945.56;5065884;28;20290;-67
2021/06/03 04:58:50;;;;;;;1.67;1.57;;;;;;;19.78;70.96;97904.44;5079831;28;20630;-66
2021/06/03 05:01:16;;;;;;;1.97;1.80;;;;;;;20.02;70.96;97956.50;5046989;28;21008;-67
2021/06/03 05:03:43;;;;;;;2.20;2.00;;;;;;;19.98;70.87;97948.66;5060079;28;20206;-67
2021/06/03 05:06:10;;;;;;;1.70;1.60;;;;;;;19.83;70.55;97930.16;5084971;28;20247;-68
2021/06/03 05:08:36;;;;;;;1.60;1.50;;;;;;;19.81;71.25;97926.69;5034258;28;20235;-66
2021/06/03 05:11:03;;;;;;;1.80;1.70;;;;;;;19.79;71.08;97925.72;5062382;28;20679;-67
2021/06/03 05:13:31;;;;;;;2.10;1.90;;;;;;;19.95;71.31;97958.72;5050335;28;20213;-66
2021/06/03 05:15:58;;;;;;;1.90;1.80;;;;;;;19.80;71.48;97936.00;5064852;28;20284;-67
2021/06/03 05:18:25;;;;;;;2.10;1.90;;;;;;;19.95;71.44;97957.06;5067622;28;20203;-67
2021/06/03 05:20:52;;;;;;;1.90;1.80;;;;;;;19.87;71.46;97943.09;5081968;28;20247;-67
2021/06/03 05:23:20;;;;;;;1.93;1.83;;;;;;;19.95;71.50;97956.16;5083021;28;20238;-65
2021/06/03 05:25:46;;;;;;;1.90;1.80;;;;;;;19.78;71.58;97926.56;5082554;28;20306;-66
2021/06/03 05:28:13;;;;;;;2.70;1.73;;;;;;;19.33;71.45;97848.97;5054422;28;20660;-68
2021/06/03 05:30:40;;;;;;;1.77;1.67;;;;;;;19.57;71.29;97885.69;5055469;28;20310;-67
2021/06/03 05:33:06;;;;;;;1.80;1.70;;;;;;;19.95;71.90;97956.16;5071152;28;20824;-67
2021/06/03 05:35:33;;;;;;;1.60;1.50;;;;;;;19.96;71.61;97961.34;5070100;28;20235;-67
2021/06/03 05:38:00;;;;;;;2.03;1.83;;;;;;;19.79;71.61;97934.28;5090120;28;20283;-69
2021/06/03 05:40:27;;;;;;;2.07;1.90;;;;;;;19.95;71.57;97967.25;5055274;28;20256;-68
2021/06/03 05:42:54;;;;;;;2.23;2.03;;;;;;;19.82;71.72;97949.69;5070848;28;20227;-67
2021/06/03 05:45:21;;;;;;;1.80;1.70;;;;;;;19.37;71.49;97873.81;5071193;28;20358;-68
2021/06/03 05:47:48;;;;;;;2.10;1.70;;;;;;;19.76;71.44;97941.78;5054599;28;20238;-67
2021/06/03 05:50:16;;;;;;;2.10;2.00;;;;;;;19.96;71.46;97979.19;5055167;28;20224;-68
2021/06/03 05:52:42;;;;;;;1.77;1.67;;;;;;;19.35;71.41;97875.41;5087195;28;20974;-67
2021/06/03 05:55:10;;;;;;;1.70;1.60;;;;;;;19.81;71.74;97955.59;5054423;28;20231;-68
2021/06/03 05:57:37;;;;;;;1.97;1.77;;;;;;;19.83;71.74;97960.75;5050257;28;20291;-66
2021/06/03 06:00:12;;;;;;;2.17;1.97;;;;;;;19.64;71.49;97927.63;5054409;28;20258;-66
2021/06/03 06:02:51;;;;;;;2.00;1.90;;;;;;;19.82;71.50;97961.56;5049151;28;20237;-67
2021/06/03 06:08:04;;;;;;;1.90;1.80;;;;;;;19.59;71.54;97926.56;5059543;28;20231;-67
2021/06/03 06:10:31;;;;;;;2.53;1.90;;;;;;;19.58;71.45;97929.91;5044464;23;20322;-68
2021/06/03 06:12:58;;;;;;;2.43;1.87;;;;;;;19.75;71.66;97960.44;5047062;28;20311;-65
2021/06/03 06:15:25;;;;;;;2.00;1.80;;;;;;;19.25;71.55;97874.91;5051266;28;20304;-68
2021/06/03 06:17:52;;;;;;;1.97;1.87;;;;;;;16.74;71.30;97448.81;5064488;28;20239;-67
2021/06/03 06:20:19;;;;;;;3.40;1.80;;;;;;;19.79;71.51;97979.28;5062488;28;20246;-68
2021/06/03 06:22:46;;;;;;;1.90;1.80;;;;;;;18.94;71.54;97841.22;5047820;28;20288;-67
2021/06/03 06:25:12;;;;;;;3.23;2.00;;;;;;;19.91;71.99;98011.31;5048493;28;20721;-67
2021/06/03 06:27:39;;;;;;;2.00;1.70;;;;;;;19.84;72.01;97998.22;5048337;28;20288;-68
2021/06/03 06:30:07;;;;;;;2.10;1.90;;;;;;;18.66;71.98;97790.78;5046587;28;20262;-67
2021/06/03 06:32:33;;;;;;;1.83;1.73;;;;;;;19.92;71.86;98015.59;5046312;28;20216;-68
2021/06/03 06:35:00;;;;;;;2.03;1.90;;;;;;;18.70;71.82;97801.94;5047818;28;20205;-67
2021/06/03 06:37:27;;;;;;;2.17;1.83;;;;;;;19.66;72.13;97971.94;5034112;28;20232;-66
2021/06/03 06:39:53;;;;;;;2.33;1.90;;;;;;;19.59;72.06;97950.38;5045449;28;20288;-67
2021/06/03 06:42:22;;;;;;;2.63;2.00;;;;;;;19.95;71.98;98019.94;5047572;28;20197;-66
2021/06/03 06:44:49;;;;;;;2.00;1.80;;;;;;;19.95;71.97;98020.84;5027485;28;20285;-66
2021/06/03 06:47:15;;;;;;;1.90;1.70;;;;;;;19.66;72.25;97969.38;5046218;28;20248;-67
2021/06/03 06:49:42;;;;;;;2.37;1.63;;;;;;;19.96;71.80;98017.47;5026350;28;20205;-67
2021/06/03 06:52:09;;;;;;;3.60;2.10;;;;;;;19.95;71.77;98023.38;5046787;28;20296;-67
2021/06/03 06:54:35;;;;;;;2.20;2.00;;;;;;;19.96;71.97;98022.56;5047686;28;20232;-67
2021/06/03 06:57:02;;;;;;;1.83;1.73;;;;;;;18.92;71.76;97846.25;5043341;28;20293;-67
2021/06/03 06:59:29;;;;;;;3.30;2.20;;;;;;;19.97;72.06;98031.09;5042849;28;20248;-67
2021/06/03 07:01:55;;;;;;;3.07;2.00;;;;;;;19.97;72.34;98026.00;5047789;28;20223;-67
2021/06/03 07:04:22;;;;;;;2.50;2.07;;;;;;;19.98;71.90;98021.78;5044730;28;20705;-67
2021/06/03 07:06:50;;;;;;;4.40;1.90;;;;;;;19.98;71.73;98027.72;5044322;28;20228;-66
2021/06/03 07:09:16;;;;;;;2.33;1.97;;;;;;;19.99;72.32;98032.91;5043244;28;20232;-67
2021/06/03 07:11:43;;;;;;;2.03;1.90;;;;;;;19.87;71.96;98018.75;5047549;28;20792;-66
2021/06/03 07:14:13;;;;;;;3.40;2.00;;;;;;;20.01;72.40;98044.88;5046028;28;20242;-65
2021/06/03 07:16:40;;;;;;;1.90;1.80;;;;;;;20.00;71.91;98041.44;5046817;28;20247;-67
2021/06/03 07:19:06;;;;;;;2.63;1.90;;;;;;;19.79;71.78;98004.78;5047888;28;20324;-68
2021/06/03 07:21:33;;;;;;;2.60;1.93;;;;;;;19.96;72.02;98037.88;5046258;28;20307;-67
2021/06/03 07:24:00;;;;;;;3.20;2.07;;;;;;;19.66;71.92;97994.88;5046088;28;20608;-67
2021/06/03 07:26:26;;;;;;;2.90;1.90;;;;;;;19.76;72.07;98005.53;5047276;28;20256;-67
2021/06/03 07:28:53;;;;;;;2.70;2.17;;;;;;;19.92;72.15;98035.13;5046792;28;20224;-68
2021/06/03 07:31:20;;;;;;;6.17;2.23;;;;;;;19.92;72.37;98043.66;5046574;28;20761;-66
2021/06/03 07:33:46;;;;;;;2.00;1.80;;;;;;;19.91;72.44;98025.72;5045911;28;20292;-67
2021/06/03 07:36:13;;;;;;;2.40;2.03;;;;;;;19.93;72.17;98039.44;5046516;28;20224;-66
2021/06/03 07:38:40;;;;;;;2.00;1.80;;;;;;;18.69;72.04;97826.53;5045211;28;20232;-68
2021/06/03 07:41:08;;;;;;;2.77;1.90;;;;;;;19.43;72.08;97955.63;5034230;28;20717;-67
2021/06/03 07:43:35;;;;;;;2.10;1.90;;;;;;;19.57;72.41;97986.81;5045649;28;20292;-67
2021/06/03 07:46:01;;;;;;;2.33;2.00;;;;;;;19.93;72.21;98053.03;5045875;28;20868;-67
2021/06/03 07:48:28;;;;;;;2.93;2.10;;;;;;;19.76;72.23;98019.97;5046515;28;20220;-67
2021/06/03 07:50:55;;;;;;;1.90;1.80;;;;;;;19.93;72.23;98045.38;5041594;28;20244;-67
2021/06/03 07:53:21;;;;;;;2.33;1.83;;;;;;;19.63;72.26;97987.94;5047345;28;20201;-67
2021/06/03 07:55:48;;;;;;;2.10;1.90;;;;;;;19.64;72.20;97992.25;5041809;28;20209;-66
2021/06/03 07:58:14;;;;;;;4.00;2.10;;;;;;;19.95;72.37;98056.53;5045314;28;20200;-69
2021/06/03 08:00:43;;;;;;;3.00;1.90;;;;;;;19.83;72.06;98027.06;5045277;28;20243;-68
2021/06/03 08:03:10;;;;;;;2.57;1.80;;;;;;;19.96;72.25;98045.53;5026435;28;20224;-66
2021/06/03 08:05:37;;;;;;;2.10;1.90;;;;;;;19.87;72.13;98026.41;5041759;28;20236;-66
2021/06/03 08:08:04;;;;;;;2.57;1.97;;;;;;;19.67;72.07;97989.84;5007822;28;20282;-68
2021/06/03 08:10:34;;;;;;;4.27;2.00;;;;;;;19.97;72.38;98051.50;5045187;28;20406;-67
2021/06/03 08:13:01;;;;;;;2.27;1.97;;;;;;;19.64;72.37;97989.72;5043349;28;20211;-67
2021/06/03 08:15:28;;;;;;;2.53;1.90;;;;;;;19.97;72.13;98046.41;5044909;28;20209;-67
2021/06/03 08:17:55;;;;;;;2.50;1.97;;;;;;;19.97;72.17;98046.41;5046279;28;20284;-67
2021/06/03 08:20:25;;;;;;;2.20;2.00;;;;;;;19.95;71.96;98054.00;5046786;28;20228;-67
2021/06/03 08:22:51;;;;;;;1.83;1.73;;;;;;;19.91;72.16;98041.91;5041031;28;20713;-67
2021/06/03 08:25:18;;;;;;;2.10;1.80;;;;;;;19.86;72.04;98034.84;5046075;28;20204;-65
2021/06/03 08:27:45;;;;;;;2.27;2.07;;;;;;;19.91;72.00;98043.59;5042192;28;20311;-67
2021/06/03 08:30:12;;;;;;;1.97;1.87;;;;;;;19.59;72.21;97988.63;5045017;28;20254;-67
2021/06/03 08:32:40;;;;;;;1.90;1.80;;;;;;;19.87;72.35;98040.03;5041650;28;20651;-68
2021/06/03 08:35:07;;;;;;;2.20;2.00;;;;;;;19.61;72.31;97989.56;5044809;28;20267;-66
2021/06/03 08:37:33;;;;;;;3.53;1.93;;;;;;;19.89;72.51;98040.97;5030354;28;20324;-67
2021/06/03 08:40:00;;;;;;;4.03;1.93;;;;;;;19.91;71.81;98047.03;5045770;28;20224;-66
2021/06/03 08:42:26;;;;;;;2.30;2.10;;;;;;;19.75;72.28;98016.53;5046312;28;20648;-66
2021/06/03 08:44:53;;;;;;;4.00;2.37;;;;;;;19.39;71.93;97952.88;5045157;28;20228;-67
2021/06/03 08:47:20;;;;;;;2.17;2.00;;;;;;;19.91;72.02;98041.03;5031600;28;21012;-65
2021/06/03 08:49:46;;;;;;;2.50;2.10;;;;;;;19.49;72.38;97972.84;5045393;28;20295;-67
2021/06/03 08:52:13;;;;;;;1.60;1.50;;;;;;;19.92;72.37;98041.09;5045029;28;20237;-65
2021/06/03 08:54:40;;;;;;;2.37;2.00;;;;;;;19.92;72.45;98048.75;5029138;28;20237;-67
2021/06/03 08:57:08;;;;;;;1.90;1.80;;;;;;;19.61;72.38;97991.25;5044630;28;20193;-67
2021/06/03 08:59:35;;;;;;;1.90;1.80;;;;;;;19.60;72.10;97989.50;5045281;28;20283;-65
2021/06/03 09:02:02;;;;;;;1.90;1.80;;;;;;;19.66;72.50;98002.53;5021270;28;20652;-67
2021/06/03 09:04:28;;;;;;;2.33;2.13;;;;;;;19.87;72.35;98034.06;5038574;28;20255;-67
2021/06/03 09:06:55;;;;;;;2.20;2.10;;;;;;;19.94;72.30;98051.38;5048675;28;20390;-68
2021/06/03 09:09:26;;;;;;;2.30;1.90;;;;;;;19.43;72.25;97954.75;5046347;28;20217;-67
2021/06/03 09:12:09;;;;;;;1.80;1.63;;;;;;;19.84;72.39;98028.84;5048844;28;20293;-67
2021/06/03 09:14:36;;;;;;;2.23;2.03;;;;;;;19.77;72.34;98006.41;5043464;28;20207;-66
2021/06/03 09:17:03;;;;;;;1.90;1.80;;;;;;;15.58;71.76;97283.47;5049710;28;20300;-67
2021/06/03 09:19:30;;;;;;;2.30;2.07;;;;;;;19.93;72.26;98034.34;5044031;28;20228;-67
2021/06/03 09:21:56;;;;;;;1.93;1.83;;;;;;;19.91;72.36;98034.28;5049858;28;20284;-67
2021/06/03 09:24:24;;;;;;;1.80;1.70;;;;;;;19.59;72.20;97983.53;5046622;28;20291;-67
2021/06/03 09:26:55;;;;;;;1.80;1.70;;;;;;;19.42;72.03;97955.56;5045085;28;20637;-65
2021/06/03 09:29:30;;;;;;;1.90;1.80;;;;;;;18.79;72.27;97840.53;5046383;28;20224;-68
2021/06/03 09:32:07;;;;;;;2.00;1.90;;;;;;;19.88;72.54;98035.81;5047801;28;20220;-67
2021/06/03 09:34:34;;;;;;;1.80;1.70;;;;;;;19.82;72.53;98025.34;5048513;28;20196;-67
2021/06/03 09:37:03;;;;;;;2.20;2.00;;;;;;;19.58;72.49;97976.69;5045055;28;20252;-67
2021/06/03 09:39:29;;;;;;;1.83;1.70;;;;;;;19.88;72.50;98026.47;5044061;28;20291;-67
2021/06/03 09:41:58;;;;;;;2.10;1.93;;;;;;;19.87;72.67;98022.16;5049669;28;20303;-67
2021/06/03 09:44:33;;;;;;;2.03;1.93;;;;;;;19.88;72.65;98025.59;5048878;28;20209;-67
2021/06/03 09:47:21;;;;;;;1.70;1.60;;;;;;;19.89;72.72;98027.34;5047697;28;20220;-66
2021/06/03 09:49:51;;;;;;;1.83;1.73;;;;;;;19.89;72.68;98019.69;5046475;28;20258;-65
2021/06/03 09:52:18;;;;;;;1.87;1.77;;;;;;;19.44;72.58;97946.28;5045819;28;20197;-67
2021/06/03 09:54:53;;;;;;;1.90;1.80;;;;;;;19.90;72.52;98016.34;5032952;28;20381;-67
2021/06/03 09:57:21;;;;;;;2.13;1.80;;;;;;;19.58;71.63;97963.94;5046218;28;20196;-66
2021/06/03 09:59:56;;;;;;;1.90;1.80;;;;;;;19.91;71.33;98024.06;5034393;28;20678;-65
2021/06/03 10:02:23;;;;;;;1.87;1.77;;;;;;;19.91;71.41;98018.97;5010343;28;20290;-67
2021/06/03 10:04:50;;;;;;;3.50;2.00;;;;;;;19.91;71.06;98020.63;5048378;28;20207;-67
2021/06/03 10:07:18;;;;;;;1.97;1.87;;;;;;;19.63;71.19;97967.53;5047239;28;20307;-67
2021/06/03 10:09:44;;;;;;;3.13;1.97;;;;;;;19.92;71.18;98014.72;5041702;28;20251;-67
2021/06/03 10:12:13;;;;;;;2.70;2.03;;;;;;;19.91;71.49;98013.88;5042964;28;20690;-67
2021/06/03 10:14:39;;;;;;;3.27;2.00;;;;;;;19.92;71.76;98010.50;5047727;28;20205;-67
2021/06/03 10:17:19;;;;;;;2.43;2.13;;;;;;;19.63;71.88;97961.59;5048741;28;20658;-67
2021/06/03 10:19:46;;;;;;;1.80;1.70;;;;;;;19.43;71.93;97929.25;5041205;28;20225;-67
2021/06/03 10:22:19;;;;;;;2.10;1.90;;;;;;;19.90;71.36;98009.53;5040709;28;20307;-68
2021/06/03 10:24:59;;;;;;;3.03;2.10;;;;;;;19.89;71.51;98015.47;5044358;28;20334;-67
2021/06/03 10:27:50;;;;;;;2.80;2.30;;;;;;;19.88;71.50;98013.72;5045094;28;20320;-68
2021/06/03 10:30:18;;;;;;;1.80;1.70;;;;;;;19.88;71.80;98012.84;5046698;28;20315;-67
2021/06/03 10:32:45;;;;;;;2.30;2.10;;;;;;;19.87;71.76;98006.88;5041771;28;20316;-67
2021/06/03 10:35:14;;;;;;;1.77;1.67;;;;;;;19.88;71.66;98015.41;5047927;28;20201;-67
2021/06/03 10:37:40;;;;;;;2.70;2.10;;;;;;;19.57;71.64;97959.63;5046253;28;20706;-68
2021/06/03 10:40:09;;;;;;;1.97;1.87;;;;;;;19.88;71.75;98016.28;5028424;28;20249;-66
2021/06/03 10:42:37;;;;;;;2.27;2.07;;;;;;;19.88;71.77;98010.28;5048046;28;20647;-67
2021/06/03 10:45:04;;;;;;;2.70;1.97;;;;;;;19.88;71.68;98010.28;5047011;28;20270;-68
2021/06/03 10:47:31;;;;;;;2.90;1.90;;;;;;;19.76;71.60;97987.69;5039460;28;20244;-67
2021/06/03 10:49:59;;;;;;;2.43;2.03;;;;;;;19.89;71.80;97997.59;5043509;28;20272;-66
2021/06/03 10:52:26;;;;;;;4.40;2.00;;;;;;;19.76;71.75;97982.59;5044295;28;20232;-67
2021/06/03 10:54:56;;;;;;;2.30;2.10;;;;;;;19.52;71.70;97944.94;5026229;28;20228;-67
2021/06/03 10:57:44;;;;;;;2.47;2.27;;;;;;;19.88;71.95;98000.97;5039843;28;20210;-67
2021/06/03 11:00:27;;;;;;;2.40;2.10;;;;;;;19.87;71.82;97999.22;5042570;28;21017;-67
2021/06/03 11:02:57;;;;;;;2.90;2.03;;;;;;;19.88;71.88;97997.53;5040989;28;20228;-67
2021/06/03 11:05:34;;;;;;;2.60;2.03;;;;;;;19.88;71.90;97998.44;5045394;28;20667;-67
2021/06/03 11:08:27;;;;;;;2.30;2.10;;;;;;;19.86;71.89;97992.38;5046669;28;20638;-66
2021/06/03 11:11:14;;;;;;;2.70;1.90;;;;;;;19.87;71.88;97990.72;5018261;28;20263;-67
2021/06/03 11:13:40;;;;;;;3.03;2.00;;;;;;;19.87;72.01;97995.81;5044412;28;20307;-67
2021/06/03 11:16:09;;;;;;;2.10;1.90;;;;;;;19.86;72.06;97987.28;5046832;28;20197;-67
2021/06/03 11:18:44;;;;;;;2.03;1.87;;;;;;;19.87;71.84;97995.81;5047700;28;20731;-66
2021/06/03 11:21:35;;;;;;;2.53;2.33;;;;;;;19.85;71.90;97983.00;5046784;28;21046;-67
2021/06/03 11:24:05;;;;;;;2.77;2.10;;;;;;;19.86;71.97;97992.38;5045866;28;20236;-66
2021/06/03 11:26:38;;;;;;;2.23;2.00;;;;;;;19.86;71.96;97987.28;5047268;28;20205;-65
2021/06/03 11:29:22;;;;;;;3.10;2.10;;;;;;;19.68;72.09;97950.78;5047549;28;20240;-67
2021/06/03 11:32:02;;;;;;;2.97;2.00;;;;;;;19.85;72.00;97977.88;5046330;28;20311;-67
2021/06/03 11:34:38;;;;;;;2.30;2.10;;;;;;;19.86;72.14;97982.16;5047222;28;20211;-67
2021/06/03 11:37:06;;;;;;;2.30;2.10;;;;;;;19.66;71.89;97944.72;5046253;28;20266;-67
2021/06/03 11:39:32;;;;;;;4.87;2.30;;;;;;;19.85;72.12;97975.34;5045831;28;20229;-67
2021/06/03 11:42:18;;;;;;;4.87;2.10;;;;;;;19.85;72.04;97972.78;5047002;28;20255;-67